»·PEaware :: BOLT91 KEND-KEND

BOLT91 :: KEND-KEND

FLIGHT INFORMATION

Flight Status: Arrived
Operator: Unknown
More flights by this operator :: More flights under this callsign
Pilot: Justin M. (19723)
Aircraft: BEECH AIRCRAFT T-6A TEXAN
(TEX2)
More flights by this aircraft type
Origin: KEND Vance AFB
United States
Destination: KEND Vance AFB
United States
More flights between these airports :: More routes between these airports
Route: +
File this flight plan on PilotEdge
Remarks:
Altitude:
(Current/Filed)
0ft
Speed:
(Current/Filed)
0kts
Departed: 28-Jun-19 01:12 PM
Arrived: 28-Jun-19 01:58 PM
Distance/Time
Traveled:
0nm/0:46
Distance/Time
To Go:
Arrived

Flight Plot

Page will automatically refresh every two minutes.


Map Options




Map Legend


Flown Route
Filed Route
Departure Airport
Arrival Airport
Navaid (VOR, NDB)
Fix

Horizontal Profiles

Position Reports

Time Latitude Longitude Heading Altitude Ground
Speed
28-Jun-19 13:11 36.664772 -96.875754 359 1820ft 257kts
28-Jun-19 13:12 36.734789 -96.865099 9 1849ft 254kts
28-Jun-19 13:13 36.804473 -96.852501 8 1932ft 255kts
28-Jun-19 13:14 36.867813 -96.815195 34 2022ft 255kts
28-Jun-19 13:15 36.927869 -96.765539 36 1926ft 260kts
28-Jun-19 13:15 36.976521 -96.721678 34 1878ft 262kts
28-Jun-19 13:17 37.045815 -96.661528 37 1988ft 259kts
28-Jun-19 13:18 37.055504 -96.588261 111 2005ft 245kts
28-Jun-19 13:18 37.039259 -96.519359 112 1883ft 249kts
28-Jun-19 13:20 37.012118 -96.425418 117 1870ft 243kts
28-Jun-19 13:21 36.991716 -96.344178 111 1850ft 248kts
28-Jun-19 13:21 36.950548 -96.330169 201 1853ft 232kts
28-Jun-19 13:22 36.892084 -96.363238 206 1933ft 231kts
28-Jun-19 13:23 36.835727 -96.401434 208 1909ft 230kts
28-Jun-19 13:24 36.778161 -96.436691 203 2043ft 227kts
28-Jun-19 13:25 36.720074 -96.469491 198 1906ft 237kts
28-Jun-19 13:26 36.656654 -96.489388 196 1977ft 233kts
28-Jun-19 13:27 36.593442 -96.505897 191 1943ft 234kts
28-Jun-19 13:28 36.529068 -96.518810 191 1848ft 235kts
28-Jun-19 13:29 36.464690 -96.529687 186 1900ft 235kts
28-Jun-19 13:30 36.400581 -96.544049 192 1963ft 231kts
28-Jun-19 13:31 36.337462 -96.559378 194 1873ft 234kts
28-Jun-19 13:32 36.292305 -96.611754 229 1867ft 229kts
28-Jun-19 13:33 36.258773 -96.679350 246 1841ft 239kts
28-Jun-19 13:34 36.237701 -96.756344 266 1961ft 236kts
28-Jun-19 13:35 36.268701 -96.831539 302 1844ft 247kts
28-Jun-19 13:36 36.312270 -96.897374 301 1878ft 247kts
28-Jun-19 13:37 36.357781 -96.961657 302 1981ft 246kts
28-Jun-19 13:38 36.401783 -97.027192 302 1902ft 248kts
28-Jun-19 13:39 36.397048 -97.107737 260 2159ft 231kts
28-Jun-19 13:40 36.391197 -97.188933 266 2132ft 238kts
28-Jun-19 13:41 36.388610 -97.270602 264 2327ft 240kts
28-Jun-19 13:42 36.409729 -97.285631 96 1642ft 121kts
28-Jun-19 13:43 36.384074 -97.277075 181 1124ft 123kts
28-Jun-19 13:44 36.370770 -97.313155 263 4046ft 150kts
28-Jun-19 13:45 36.367483 -97.365660 261 6002ft 177kts
28-Jun-19 13:46 36.366098 -97.435463 266 6269ft 221kts
28-Jun-19 13:47 36.365504 -97.514997 269 5932ft 240kts
28-Jun-19 13:48 36.368467 -97.597782 268 5894ft 240kts
28-Jun-19 13:49 36.370932 -97.680388 270 6010ft 241kts
28-Jun-19 13:50 36.373047 -97.764117 267 5965ft 244kts
28-Jun-19 13:51 36.430157 -97.791468 0 4773ft 257kts
28-Jun-19 13:52 36.478702 -97.832033 289 2845ft 224kts
28-Jun-19 13:53 36.444079 -97.872413 201 2304ft 184kts
28-Jun-19 13:54 36.390127 -97.899980 202 2360ft 229kts
28-Jun-19 13:55 36.337298 -97.896230 60 2196ft 219kts
28-Jun-19 13:56 36.360917 -97.908336 205 1826ft 111kts
28-Jun-19 13:57 36.339050 -97.911003 182 1286ft 38kts
28-Jun-19 13:58 36.335473 -97.909242 359 1290ft 23kts
28-Jun-19 13:59 36.342930 -97.909205 0 1282ft 19kts
28-Jun-19 14:00 36.344705 -97.908321 0 1280ft 0kts
28-Jun-19 14:01 36.344705 -97.908321 0 1280ft 0kts
28-Jun-19 14:02 36.344705 -97.908321 0 1280ft 0kts
28-Jun-19 14:03 36.344705 -97.908321 0 1280ft 0kts

Navigation Log

Ident Type
Flight plan parsing failed, navigation log unavailable